sensor_id;sensor_type;location;lat;lon;timestamp;P1;durP1;ratioP1;P2;durP2;ratioP2
17886;SDS011;9069;52.044;7.472;2023-07-20T00:01:29;3.42;;;1.92;;
17886;SDS011;9069;52.044;7.472;2023-07-20T00:03:56;3.30;;;1.67;;
17886;SDS011;9069;52.044;7.472;2023-07-20T00:06:24;3.65;;;1.90;;
17886;SDS011;9069;52.044;7.472;2023-07-20T00:08:51;5.55;;;2.03;;
17886;SDS011;9069;52.044;7.472;2023-07-20T00:11:18;5.47;;;1.75;;
17886;SDS011;9069;52.044;7.472;2023-07-20T00:13:45;3.70;;;2.05;;
17886;SDS011;9069;52.044;7.472;2023-07-20T00:16:12;5.53;;;1.90;;
17886;SDS011;9069;52.044;7.472;2023-07-20T00:18:38;4.10;;;2.05;;
17886;SDS011;9069;52.044;7.472;2023-07-20T00:21:05;4.35;;;2.00;;
17886;SDS011;9069;52.044;7.472;2023-07-20T00:23:32;3.72;;;2.47;;
17886;SDS011;9069;52.044;7.472;2023-07-20T00:26:01;3.80;;;2.17;;
17886;SDS011;9069;52.044;7.472;2023-07-20T00:28:28;2.58;;;1.85;;
17886;SDS011;9069;52.044;7.472;2023-07-20T00:30:55;2.92;;;1.95;;
17886;SDS011;9069;52.044;7.472;2023-07-20T00:33:22;3.42;;;2.10;;
17886;SDS011;9069;52.044;7.472;2023-07-20T00:35:48;3.53;;;2.13;;
17886;SDS011;9069;52.044;7.472;2023-07-20T00:38:15;7.00;;;2.75;;
17886;SDS011;9069;52.044;7.472;2023-07-20T00:40:42;3.20;;;2.05;;
17886;SDS011;9069;52.044;7.472;2023-07-20T00:43:10;4.53;;;2.05;;
17886;SDS011;9069;52.044;7.472;2023-07-20T00:45:37;4.57;;;2.40;;
17886;SDS011;9069;52.044;7.472;2023-07-20T00:48:04;4.18;;;2.20;;
17886;SDS011;9069;52.044;7.472;2023-07-20T00:50:33;4.85;;;2.38;;
17886;SDS011;9069;52.044;7.472;2023-07-20T00:53:01;5.03;;;2.92;;
17886;SDS011;9069;52.044;7.472;2023-07-20T00:55:31;3.33;;;2.83;;
17886;SDS011;9069;52.044;7.472;2023-07-20T00:57:59;5.15;;;2.40;;
17886;SDS011;9069;52.044;7.472;2023-07-20T01:00:26;3.97;;;2.63;;
17886;SDS011;9069;52.044;7.472;2023-07-20T01:02:53;4.15;;;2.35;;
17886;SDS011;9069;52.044;7.472;2023-07-20T01:05:21;3.47;;;2.22;;
17886;SDS011;9069;52.044;7.472;2023-07-20T01:07:55;3.42;;;2.33;;
17886;SDS011;9069;52.044;7.472;2023-07-20T01:10:30;3.38;;;2.38;;
17886;SDS011;9069;52.044;7.472;2023-07-20T01:13:02;3.00;;;2.20;;
17886;SDS011;9069;52.044;7.472;2023-07-20T01:15:31;3.58;;;2.35;;
17886;SDS011;9069;52.044;7.472;2023-07-20T01:18:00;5.45;;;2.72;;
17886;SDS011;9069;52.044;7.472;2023-07-20T01:20:31;5.68;;;2.55;;
17886;SDS011;9069;52.044;7.472;2023-07-20T01:23:09;6.03;;;2.70;;
17886;SDS011;9069;52.044;7.472;2023-07-20T01:26:21;3.03;;;2.28;;
17886;SDS011;9069;52.044;7.472;2023-07-20T01:29:11;8.45;;;2.90;;
17886;SDS011;9069;52.044;7.472;2023-07-20T01:31:51;3.55;;;2.30;;
17886;SDS011;9069;52.044;7.472;2023-07-20T01:34:21;4.15;;;2.20;;
17886;SDS011;9069;52.044;7.472;2023-07-20T01:36:49;4.40;;;2.45;;
17886;SDS011;9069;52.044;7.472;2023-07-20T01:39:18;4.75;;;2.60;;
17886;SDS011;9069;52.044;7.472;2023-07-20T01:41:47;5.32;;;2.70;;
17886;SDS011;9069;52.044;7.472;2023-07-20T01:44:13;4.10;;;2.60;;
17886;SDS011;9069;52.044;7.472;2023-07-20T01:46:40;3.58;;;2.35;;
17886;SDS011;9069;52.044;7.472;2023-07-20T01:49:07;4.82;;;2.80;;
17886;SDS011;9069;52.044;7.472;2023-07-20T01:51:34;4.13;;;2.65;;
17886;SDS011;9069;52.044;7.472;2023-07-20T01:54:00;4.95;;;2.90;;
17886;SDS011;9069;52.044;7.472;2023-07-20T01:56:27;5.25;;;2.83;;
17886;SDS011;9069;52.044;7.472;2023-07-20T01:58:54;2.72;;;2.28;;
17886;SDS011;9069;52.044;7.472;2023-07-20T02:01:21;3.22;;;2.63;;
17886;SDS011;9069;52.044;7.472;2023-07-20T02:03:49;3.08;;;2.45;;
17886;SDS011;9069;52.044;7.472;2023-07-20T02:06:16;3.72;;;2.50;;
17886;SDS011;9069;52.044;7.472;2023-07-20T02:08:42;3.42;;;2.85;;
17886;SDS011;9069;52.044;7.472;2023-07-20T02:11:09;5.10;;;2.75;;
17886;SDS011;9069;52.044;7.472;2023-07-20T02:13:36;3.40;;;2.70;;
17886;SDS011;9069;52.044;7.472;2023-07-20T02:16:03;5.60;;;2.92;;
17886;SDS011;9069;52.044;7.472;2023-07-20T02:18:30;4.15;;;2.60;;
17886;SDS011;9069;52.044;7.472;2023-07-20T02:20:57;3.38;;;2.90;;
17886;SDS011;9069;52.044;7.472;2023-07-20T02:23:24;5.65;;;2.65;;
17886;SDS011;9069;52.044;7.472;2023-07-20T02:25:50;4.15;;;2.42;;
17886;SDS011;9069;52.044;7.472;2023-07-20T02:28:17;3.78;;;2.58;;
17886;SDS011;9069;52.044;7.472;2023-07-20T02:30:44;4.35;;;2.60;;
17886;SDS011;9069;52.044;7.472;2023-07-20T02:33:11;4.30;;;3.22;;
17886;SDS011;9069;52.044;7.472;2023-07-20T02:35:38;3.28;;;2.78;;
17886;SDS011;9069;52.044;7.472;2023-07-20T02:38:07;2.85;;;2.55;;
17886;SDS011;9069;52.044;7.472;2023-07-20T02:40:34;4.95;;;2.88;;
17886;SDS011;9069;52.044;7.472;2023-07-20T02:43:00;4.63;;;2.60;;
17886;SDS011;9069;52.044;7.472;2023-07-20T02:45:27;3.70;;;2.67;;
17886;SDS011;9069;52.044;7.472;2023-07-20T02:47:54;4.25;;;2.90;;
17886;SDS011;9069;52.044;7.472;2023-07-20T02:50:21;5.63;;;2.78;;
17886;SDS011;9069;52.044;7.472;2023-07-20T02:52:48;4.45;;;2.97;;
17886;SDS011;9069;52.044;7.472;2023-07-20T02:55:17;4.38;;;2.80;;
17886;SDS011;9069;52.044;7.472;2023-07-20T02:57:44;3.25;;;2.95;;
17886;SDS011;9069;52.044;7.472;2023-07-20T03:00:11;4.32;;;2.65;;
17886;SDS011;9069;52.044;7.472;2023-07-20T03:02:41;4.63;;;3.05;;
17886;SDS011;9069;52.044;7.472;2023-07-20T03:05:08;3.70;;;2.78;;
17886;SDS011;9069;52.044;7.472;2023-07-20T03:07:35;3.35;;;2.70;;
17886;SDS011;9069;52.044;7.472;2023-07-20T03:10:02;4.38;;;2.97;;
17886;SDS011;9069;52.044;7.472;2023-07-20T03:12:29;5.03;;;2.60;;
17886;SDS011;9069;52.044;7.472;2023-07-20T03:14:56;3.22;;;2.55;;
17886;SDS011;9069;52.044;7.472;2023-07-20T03:17:24;3.78;;;2.80;;
17886;SDS011;9069;52.044;7.472;2023-07-20T03:19:51;5.32;;;2.80;;
17886;SDS011;9069;52.044;7.472;2023-07-20T03:22:18;3.03;;;2.75;;
17886;SDS011;9069;52.044;7.472;2023-07-20T03:24:44;4.18;;;2.88;;
17886;SDS011;9069;52.044;7.472;2023-07-20T03:27:11;3.45;;;2.30;;
17886;SDS011;9069;52.044;7.472;2023-07-20T03:29:38;5.43;;;2.65;;
17886;SDS011;9069;52.044;7.472;2023-07-20T03:32:05;6.07;;;2.88;;
17886;SDS011;9069;52.044;7.472;2023-07-20T03:34:32;4.30;;;2.95;;
17886;SDS011;9069;52.044;7.472;2023-07-20T03:36:59;3.85;;;3.13;;
17886;SDS011;9069;52.044;7.472;2023-07-20T03:39:26;3.08;;;2.75;;
17886;SDS011;9069;52.044;7.472;2023-07-20T03:41:53;3.25;;;2.95;;
17886;SDS011;9069;52.044;7.472;2023-07-20T03:44:20;4.82;;;3.17;;
17886;SDS011;9069;52.044;7.472;2023-07-20T03:46:47;4.25;;;3.60;;
17886;SDS011;9069;52.044;7.472;2023-07-20T03:49:14;3.90;;;3.40;;
17886;SDS011;9069;52.044;7.472;2023-07-20T03:51:40;3.63;;;3.03;;
17886;SDS011;9069;52.044;7.472;2023-07-20T03:54:07;4.53;;;3.00;;
17886;SDS011;9069;52.044;7.472;2023-07-20T03:56:34;4.28;;;2.75;;
17886;SDS011;9069;52.044;7.472;2023-07-20T03:59:01;3.05;;;2.75;;
17886;SDS011;9069;52.044;7.472;2023-07-20T04:01:28;3.05;;;2.75;;
17886;SDS011;9069;52.044;7.472;2023-07-20T04:03:55;4.13;;;2.70;;
17886;SDS011;9069;52.044;7.472;2023-07-20T04:06:22;2.97;;;2.47;;
17886;SDS011;9069;52.044;7.472;2023-07-20T04:08:49;6.03;;;2.60;;
17886;SDS011;9069;52.044;7.472;2023-07-20T04:11:16;2.78;;;2.55;;
17886;SDS011;9069;52.044;7.472;2023-07-20T04:13:43;3.22;;;2.65;;
17886;SDS011;9069;52.044;7.472;2023-07-20T04:16:10;3.10;;;2.80;;
17886;SDS011;9069;52.044;7.472;2023-07-20T04:18:37;6.10;;;2.63;;
17886;SDS011;9069;52.044;7.472;2023-07-20T04:21:04;5.32;;;2.50;;
17886;SDS011;9069;52.044;7.472;2023-07-20T04:23:31;3.60;;;2.60;;
17886;SDS011;9069;52.044;7.472;2023-07-20T04:25:57;2.75;;;2.45;;
17886;SDS011;9069;52.044;7.472;2023-07-20T04:28:24;3.03;;;2.72;;
17886;SDS011;9069;52.044;7.472;2023-07-20T04:30:52;3.08;;;2.40;;
17886;SDS011;9069;52.044;7.472;2023-07-20T04:33:19;3.42;;;2.00;;
17886;SDS011;9069;52.044;7.472;2023-07-20T04:38:23;2.60;;;2.10;;
17886;SDS011;9069;52.044;7.472;2023-07-20T04:41:00;4.35;;;2.70;;
17886;SDS011;9069;52.044;7.472;2023-07-20T04:43:31;3.38;;;2.15;;
17886;SDS011;9069;52.044;7.472;2023-07-20T04:45:57;3.42;;;2.28;;
17886;SDS011;9069;52.044;7.472;2023-07-20T04:48:25;2.47;;;2.20;;
17886;SDS011;9069;52.044;7.472;2023-07-20T04:50:53;3.20;;;2.22;;
17886;SDS011;9069;52.044;7.472;2023-07-20T04:53:22;2.80;;;1.88;;
17886;SDS011;9069;52.044;7.472;2023-07-20T04:55:49;2.47;;;2.28;;
17886;SDS011;9069;52.044;7.472;2023-07-20T04:58:19;4.85;;;2.40;;
17886;SDS011;9069;52.044;7.472;2023-07-20T05:00:48;4.05;;;2.40;;
17886;SDS011;9069;52.044;7.472;2023-07-20T05:03:17;4.55;;;2.22;;
17886;SDS011;9069;52.044;7.472;2023-07-20T05:05:44;3.25;;;2.25;;
17886;SDS011;9069;52.044;7.472;2023-07-20T05:08:15;3.00;;;2.53;;
17886;SDS011;9069;52.044;7.472;2023-07-20T05:10:42;4.40;;;2.38;;
17886;SDS011;9069;52.044;7.472;2023-07-20T05:13:09;3.05;;;2.00;;
17886;SDS011;9069;52.044;7.472;2023-07-20T05:15:36;3.72;;;2.08;;
17886;SDS011;9069;52.044;7.472;2023-07-20T05:18:03;4.40;;;2.42;;
17886;SDS011;9069;52.044;7.472;2023-07-20T05:20:31;4.18;;;2.63;;
17886;SDS011;9069;52.044;7.472;2023-07-20T05:22:59;3.20;;;2.80;;
17886;SDS011;9069;52.044;7.472;2023-07-20T05:25:27;4.75;;;2.92;;
17886;SDS011;9069;52.044;7.472;2023-07-20T05:27:56;3.35;;;2.60;;
17886;SDS011;9069;52.044;7.472;2023-07-20T05:30:23;3.60;;;2.90;;
17886;SDS011;9069;52.044;7.472;2023-07-20T05:32:50;3.20;;;2.90;;
17886;SDS011;9069;52.044;7.472;2023-07-20T05:35:18;4.88;;;2.92;;
17886;SDS011;9069;52.044;7.472;2023-07-20T05:37:45;3.20;;;2.90;;
17886;SDS011;9069;52.044;7.472;2023-07-20T05:40:12;3.03;;;2.58;;
17886;SDS011;9069;52.044;7.472;2023-07-20T05:42:41;2.85;;;2.45;;
17886;SDS011;9069;52.044;7.472;2023-07-20T05:45:07;3.33;;;3.00;;
17886;SDS011;9069;52.044;7.472;2023-07-20T05:47:34;2.80;;;2.50;;
17886;SDS011;9069;52.044;7.472;2023-07-20T05:50:01;3.40;;;2.47;;
17886;SDS011;9069;52.044;7.472;2023-07-20T05:52:29;2.80;;;2.60;;
17886;SDS011;9069;52.044;7.472;2023-07-20T05:54:56;3.60;;;2.55;;
17886;SDS011;9069;52.044;7.472;2023-07-20T05:57:23;2.55;;;2.35;;
17886;SDS011;9069;52.044;7.472;2023-07-20T05:59:50;3.83;;;2.15;;
17886;SDS011;9069;52.044;7.472;2023-07-20T06:02:17;2.55;;;2.10;;
17886;SDS011;9069;52.044;7.472;2023-07-20T06:04:44;6.95;;;2.30;;
17886;SDS011;9069;52.044;7.472;2023-07-20T06:07:11;3.20;;;1.80;;
17886;SDS011;9069;52.044;7.472;2023-07-20T06:09:37;2.83;;;1.85;;
17886;SDS011;9069;52.044;7.472;2023-07-20T06:12:04;2.20;;;2.00;;
17886;SDS011;9069;52.044;7.472;2023-07-20T06:14:32;4.22;;;1.92;;
17886;SDS011;9069;52.044;7.472;2023-07-20T06:16:58;1.67;;;1.58;;
17886;SDS011;9069;52.044;7.472;2023-07-20T06:19:26;1.98;;;1.80;;
17886;SDS011;9069;52.044;7.472;2023-07-20T06:21:52;3.58;;;2.10;;
17886;SDS011;9069;52.044;7.472;2023-07-20T06:24:19;2.55;;;1.83;;
17886;SDS011;9069;52.044;7.472;2023-07-20T06:26:46;1.98;;;1.60;;
17886;SDS011;9069;52.044;7.472;2023-07-20T06:29:13;1.85;;;1.50;;
17886;SDS011;9069;52.044;7.472;2023-07-20T06:31:39;2.58;;;1.67;;
17886;SDS011;9069;52.044;7.472;2023-07-20T06:34:06;2.35;;;1.30;;
17886;SDS011;9069;52.044;7.472;2023-07-20T06:36:33;2.22;;;1.50;;
17886;SDS011;9069;52.044;7.472;2023-07-20T06:39:00;1.65;;;1.48;;
17886;SDS011;9069;52.044;7.472;2023-07-20T06:41:29;2.38;;;1.50;;
17886;SDS011;9069;52.044;7.472;2023-07-20T06:43:59;3.60;;;1.35;;
17886;SDS011;9069;52.044;7.472;2023-07-20T06:46:26;1.20;;;1.08;;
17886;SDS011;9069;52.044;7.472;2023-07-20T06:48:53;1.42;;;1.30;;
17886;SDS011;9069;52.044;7.472;2023-07-20T06:51:23;1.13;;;1.02;;
17886;SDS011;9069;52.044;7.472;2023-07-20T06:53:51;2.95;;;1.30;;
17886;SDS011;9069;52.044;7.472;2023-07-20T06:56:18;1.27;;;1.20;;
17886;SDS011;9069;52.044;7.472;2023-07-20T06:58:48;1.58;;;1.13;;
17886;SDS011;9069;52.044;7.472;2023-07-20T07:01:15;1.20;;;1.10;;
17886;SDS011;9069;52.044;7.472;2023-07-20T07:03:43;1.08;;;0.90;;
17886;SDS011;9069;52.044;7.472;2023-07-20T07:06:10;3.17;;;1.42;;
17886;SDS011;9069;52.044;7.472;2023-07-20T07:08:37;1.25;;;1.00;;
17886;SDS011;9069;52.044;7.472;2023-07-20T07:11:04;1.20;;;0.95;;
17886;SDS011;9069;52.044;7.472;2023-07-20T07:13:31;7.63;;;1.33;;
17886;SDS011;9069;52.044;7.472;2023-07-20T07:15:58;1.35;;;1.00;;
17886;SDS011;9069;52.044;7.472;2023-07-20T07:18:25;2.15;;;1.15;;
17886;SDS011;9069;52.044;7.472;2023-07-20T07:20:53;1.52;;;1.20;;
17886;SDS011;9069;52.044;7.472;2023-07-20T07:23:20;1.48;;;1.30;;
17886;SDS011;9069;52.044;7.472;2023-07-20T07:25:47;2.35;;;1.17;;
17886;SDS011;9069;52.044;7.472;2023-07-20T07:28:14;3.10;;;1.60;;
17886;SDS011;9069;52.044;7.472;2023-07-20T07:30:41;1.25;;;1.15;;
17886;SDS011;9069;52.044;7.472;2023-07-20T07:33:08;5.15;;;1.20;;
17886;SDS011;9069;52.044;7.472;2023-07-20T07:35:36;4.00;;;1.13;;
17886;SDS011;9069;52.044;7.472;2023-07-20T07:38:03;1.45;;;1.27;;
17886;SDS011;9069;52.044;7.472;2023-07-20T07:40:49;1.35;;;0.90;;
17886;SDS011;9069;52.044;7.472;2023-07-20T07:43:16;1.00;;;0.80;;
17886;SDS011;9069;52.044;7.472;2023-07-20T07:45:43;1.30;;;1.10;;
17886;SDS011;9069;52.044;7.472;2023-07-20T07:48:10;0.80;;;0.80;;
17886;SDS011;9069;52.044;7.472;2023-07-20T07:50:38;2.60;;;0.80;;
17886;SDS011;9069;52.044;7.472;2023-07-20T07:53:07;1.77;;;1.00;;
17886;SDS011;9069;52.044;7.472;2023-07-20T07:55:35;2.40;;;1.00;;
17886;SDS011;9069;52.044;7.472;2023-07-20T07:58:02;0.93;;;0.60;;
17886;SDS011;9069;52.044;7.472;2023-07-20T08:00:28;1.10;;;1.00;;
17886;SDS011;9069;52.044;7.472;2023-07-20T08:02:55;1.30;;;0.80;;
17886;SDS011;9069;52.044;7.472;2023-07-20T08:05:22;2.17;;;0.43;;
17886;SDS011;9069;52.044;7.472;2023-07-20T08:07:49;0.80;;;0.63;;
17886;SDS011;9069;52.044;7.472;2023-07-20T08:10:15;0.80;;;0.63;;
17886;SDS011;9069;52.044;7.472;2023-07-20T08:12:42;1.30;;;0.50;;
17886;SDS011;9069;52.044;7.472;2023-07-20T08:15:10;0.40;;;0.40;;
17886;SDS011;9069;52.044;7.472;2023-07-20T08:17:38;0.57;;;0.55;;
17886;SDS011;9069;52.044;7.472;2023-07-20T08:20:06;0.80;;;0.50;;
17886;SDS011;9069;52.044;7.472;2023-07-20T08:22:35;0.50;;;0.50;;
17886;SDS011;9069;52.044;7.472;2023-07-20T08:25:02;3.10;;;1.50;;
17886;SDS011;9069;52.044;7.472;2023-07-20T08:27:29;1.10;;;0.82;;
17886;SDS011;9069;52.044;7.472;2023-07-20T08:29:56;2.60;;;1.30;;
17886;SDS011;9069;52.044;7.472;2023-07-20T08:32:25;0.90;;;0.90;;
17886;SDS011;9069;52.044;7.472;2023-07-20T08:34:52;0.82;;;0.70;;
17886;SDS011;9069;52.044;7.472;2023-07-20T08:37:20;4.32;;;0.70;;
17886;SDS011;9069;52.044;7.472;2023-07-20T08:39:46;0.70;;;0.50;;
17886;SDS011;9069;52.044;7.472;2023-07-20T08:42:14;0.93;;;0.50;;
17886;SDS011;9069;52.044;7.472;2023-07-20T08:44:41;0.40;;;0.40;;
17886;SDS011;9069;52.044;7.472;2023-07-20T08:47:10;1.17;;;0.63;;
17886;SDS011;9069;52.044;7.472;2023-07-20T08:49:39;0.88;;;0.40;;
17886;SDS011;9069;52.044;7.472;2023-07-20T08:52:07;0.38;;;0.38;;
17886;SDS011;9069;52.044;7.472;2023-07-20T08:54:34;0.43;;;0.43;;
17886;SDS011;9069;52.044;7.472;2023-07-20T08:57:04;2.35;;;0.40;;
17886;SDS011;9069;52.044;7.472;2023-07-20T08:59:31;0.90;;;0.55;;
17886;SDS011;9069;52.044;7.472;2023-07-20T09:02:00;1.52;;;0.60;;
17886;SDS011;9069;52.044;7.472;2023-07-20T09:04:28;1.13;;;0.50;;
17886;SDS011;9069;52.044;7.472;2023-07-20T09:06:55;0.47;;;0.32;;
17886;SDS011;9069;52.044;7.472;2023-07-20T09:09:23;0.60;;;0.30;;
17886;SDS011;9069;52.044;7.472;2023-07-20T09:11:50;0.70;;;0.45;;
17886;SDS011;9069;52.044;7.472;2023-07-20T09:14:16;0.68;;;0.40;;
17886;SDS011;9069;52.044;7.472;2023-07-20T09:16:50;0.50;;;0.50;;
17886;SDS011;9069;52.044;7.472;2023-07-20T09:19:19;0.50;;;0.47;;
17886;SDS011;9069;52.044;7.472;2023-07-20T09:21:47;1.85;;;0.40;;
17886;SDS011;9069;52.044;7.472;2023-07-20T09:24:17;0.30;;;0.30;;
17886;SDS011;9069;52.044;7.472;2023-07-20T09:26:44;0.85;;;0.30;;
17886;SDS011;9069;52.044;7.472;2023-07-20T09:29:14;0.65;;;0.40;;
17886;SDS011;9069;52.044;7.472;2023-07-20T09:31:58;1.17;;;0.35;;
17886;SDS011;9069;52.044;7.472;2023-07-20T09:34:27;1.17;;;0.40;;
17886;SDS011;9069;52.044;7.472;2023-07-20T09:36:59;0.30;;;0.30;;
17886;SDS011;9069;52.044;7.472;2023-07-20T09:39:27;0.20;;;0.20;;
17886;SDS011;9069;52.044;7.472;2023-07-20T09:41:59;0.47;;;0.40;;
17886;SDS011;9069;52.044;7.472;2023-07-20T09:44:30;1.05;;;0.40;;
17886;SDS011;9069;52.044;7.472;2023-07-20T09:47:02;1.10;;;0.43;;
17886;SDS011;9069;52.044;7.472;2023-07-20T09:49:31;0.30;;;0.30;;
17886;SDS011;9069;52.044;7.472;2023-07-20T09:52:18;0.38;;;0.38;;
17886;SDS011;9069;52.044;7.472;2023-07-20T09:54:48;1.17;;;0.40;;
17886;SDS011;9069;52.044;7.472;2023-07-20T09:57:16;0.47;;;0.40;;
17886;SDS011;9069;52.044;7.472;2023-07-20T09:59:43;0.32;;;0.30;;
17886;SDS011;9069;52.044;7.472;2023-07-20T10:02:15;0.50;;;0.50;;
17886;SDS011;9069;52.044;7.472;2023-07-20T10:04:57;2.03;;;0.40;;
17886;SDS011;9069;52.044;7.472;2023-07-20T10:07:28;0.35;;;0.32;;
17886;SDS011;9069;52.044;7.472;2023-07-20T10:09:58;0.30;;;0.30;;
17886;SDS011;9069;52.044;7.472;2023-07-20T10:12:27;0.93;;;0.40;;
17886;SDS011;9069;52.044;7.472;2023-07-20T10:14:59;1.08;;;0.50;;
17886;SDS011;9069;52.044;7.472;2023-07-20T10:17:48;1.40;;;0.50;;
17886;SDS011;9069;52.044;7.472;2023-07-20T10:20:24;0.80;;;0.40;;
17886;SDS011;9069;52.044;7.472;2023-07-20T10:22:53;1.65;;;0.57;;
17886;SDS011;9069;52.044;7.472;2023-07-20T10:25:23;1.23;;;0.40;;
17886;SDS011;9069;52.044;7.472;2023-07-20T10:27:50;0.35;;;0.35;;
17886;SDS011;9069;52.044;7.472;2023-07-20T10:30:17;1.17;;;0.30;;
17886;SDS011;9069;52.044;7.472;2023-07-20T10:32:45;3.13;;;0.73;;
17886;SDS011;9069;52.044;7.472;2023-07-20T10:35:13;1.35;;;0.20;;
17886;SDS011;9069;52.044;7.472;2023-07-20T10:37:51;0.60;;;0.32;;
17886;SDS011;9069;52.044;7.472;2023-07-20T10:43:03;0.30;;;0.30;;
17886;SDS011;9069;52.044;7.472;2023-07-20T10:45:45;0.40;;;0.40;;
17886;SDS011;9069;52.044;7.472;2023-07-20T10:48:19;0.93;;;0.30;;
17886;SDS011;9069;52.044;7.472;2023-07-20T10:53:42;0.40;;;0.40;;
17886;SDS011;9069;52.044;7.472;2023-07-20T10:56:13;0.45;;;0.40;;
17886;SDS011;9069;52.044;7.472;2023-07-20T10:58:41;0.30;;;0.30;;
17886;SDS011;9069;52.044;7.472;2023-07-20T11:01:10;0.30;;;0.30;;
17886;SDS011;9069;52.044;7.472;2023-07-20T11:03:48;1.40;;;0.77;;
17886;SDS011;9069;52.044;7.472;2023-07-20T11:08:56;1.35;;;0.35;;
17886;SDS011;9069;52.044;7.472;2023-07-20T11:11:34;0.98;;;0.30;;
17886;SDS011;9069;52.044;7.472;2023-07-20T11:14:03;0.30;;;0.30;;
17886;SDS011;9069;52.044;7.472;2023-07-20T11:19:14;0.60;;;0.40;;
17886;SDS011;9069;52.044;7.472;2023-07-20T11:22:02;0.70;;;0.35;;
17886;SDS011;9069;52.044;7.472;2023-07-20T11:24:34;0.20;;;0.20;;
17886;SDS011;9069;52.044;7.472;2023-07-20T11:27:01;0.20;;;0.20;;
17886;SDS011;9069;52.044;7.472;2023-07-20T11:29:28;0.30;;;0.30;;
17886;SDS011;9069;52.044;7.472;2023-07-20T11:31:58;0.30;;;0.22;;
17886;SDS011;9069;52.044;7.472;2023-07-20T11:34:25;0.20;;;0.20;;
17886;SDS011;9069;52.044;7.472;2023-07-20T11:36:53;0.98;;;0.40;;
17886;SDS011;9069;52.044;7.472;2023-07-20T11:39:23;2.92;;;0.50;;
17886;SDS011;9069;52.044;7.472;2023-07-20T11:41:52;0.38;;;0.35;;
17886;SDS011;9069;52.044;7.472;2023-07-20T11:44:21;0.45;;;0.30;;
17886;SDS011;9069;52.044;7.472;2023-07-20T11:47:10;0.50;;;0.30;;
17886;SDS011;9069;52.044;7.472;2023-07-20T11:49:41;0.30;;;0.30;;
17886;SDS011;9069;52.044;7.472;2023-07-20T11:52:10;1.60;;;0.30;;
17886;SDS011;9069;52.044;7.472;2023-07-20T11:54:38;0.90;;;0.45;;
17886;SDS011;9069;52.044;7.472;2023-07-20T11:57:06;0.35;;;0.35;;
17886;SDS011;9069;52.044;7.472;2023-07-20T11:59:33;0.50;;;0.50;;
17886;SDS011;9069;52.044;7.472;2023-07-20T12:02:03;0.70;;;0.52;;
17886;SDS011;9069;52.044;7.472;2023-07-20T12:04:31;0.35;;;0.30;;
17886;SDS011;9069;52.044;7.472;2023-07-20T12:06:59;0.28;;;0.28;;
17886;SDS011;9069;52.044;7.472;2023-07-20T12:09:26;0.70;;;0.50;;
17886;SDS011;9069;52.044;7.472;2023-07-20T12:12:11;0.55;;;0.50;;
17886;SDS011;9069;52.044;7.472;2023-07-20T12:14:38;1.10;;;0.30;;
17886;SDS011;9069;52.044;7.472;2023-07-20T12:17:07;0.28;;;0.28;;
17886;SDS011;9069;52.044;7.472;2023-07-20T12:19:37;0.50;;;0.50;;
17886;SDS011;9069;52.044;7.472;2023-07-20T12:22:06;0.40;;;0.40;;
17886;SDS011;9069;52.044;7.472;2023-07-20T12:24:33;0.60;;;0.52;;
17886;SDS011;9069;52.044;7.472;2023-07-20T12:27:01;1.13;;;0.47;;
17886;SDS011;9069;52.044;7.472;2023-07-20T12:29:28;0.63;;;0.43;;
17886;SDS011;9069;52.044;7.472;2023-07-20T12:31:54;0.50;;;0.43;;
17886;SDS011;9069;52.044;7.472;2023-07-20T12:34:21;0.45;;;0.40;;
17886;SDS011;9069;52.044;7.472;2023-07-20T12:36:48;1.75;;;0.30;;
17886;SDS011;9069;52.044;7.472;2023-07-20T12:39:15;1.23;;;0.30;;
17886;SDS011;9069;52.044;7.472;2023-07-20T12:41:42;1.13;;;0.50;;
17886;SDS011;9069;52.044;7.472;2023-07-20T12:44:08;0.60;;;0.43;;
17886;SDS011;9069;52.044;7.472;2023-07-20T12:46:35;0.52;;;0.30;;
17886;SDS011;9069;52.044;7.472;2023-07-20T12:49:03;0.70;;;0.40;;
17886;SDS011;9069;52.044;7.472;2023-07-20T12:51:30;0.20;;;0.20;;
17886;SDS011;9069;52.044;7.472;2023-07-20T12:53:57;1.00;;;0.32;;
17886;SDS011;9069;52.044;7.472;2023-07-20T12:56:23;0.40;;;0.40;;
17886;SDS011;9069;52.044;7.472;2023-07-20T12:58:53;1.00;;;0.30;;
17886;SDS011;9069;52.044;7.472;2023-07-20T13:01:20;1.38;;;0.57;;
17886;SDS011;9069;52.044;7.472;2023-07-20T13:03:47;1.08;;;0.43;;
17886;SDS011;9069;52.044;7.472;2023-07-20T13:06:17;0.30;;;0.30;;
17886;SDS011;9069;52.044;7.472;2023-07-20T13:08:46;0.75;;;0.30;;
17886;SDS011;9069;52.044;7.472;2023-07-20T13:11:13;0.25;;;0.25;;
17886;SDS011;9069;52.044;7.472;2023-07-20T13:13:40;1.92;;;0.32;;
17886;SDS011;9069;52.044;7.472;2023-07-20T13:16:06;0.52;;;0.43;;
17886;SDS011;9069;52.044;7.472;2023-07-20T13:18:33;0.35;;;0.30;;
17886;SDS011;9069;52.044;7.472;2023-07-20T13:21:01;1.15;;;0.73;;
17886;SDS011;9069;52.044;7.472;2023-07-20T13:23:28;0.52;;;0.40;;
17886;SDS011;9069;52.044;7.472;2023-07-20T13:25:55;0.77;;;0.40;;
17886;SDS011;9069;52.044;7.472;2023-07-20T13:28:22;0.95;;;0.43;;
17886;SDS011;9069;52.044;7.472;2023-07-20T13:30:48;1.70;;;0.47;;
17886;SDS011;9069;52.044;7.472;2023-07-20T13:33:15;0.80;;;0.40;;
17886;SDS011;9069;52.044;7.472;2023-07-20T13:35:44;0.57;;;0.40;;
17886;SDS011;9069;52.044;7.472;2023-07-20T13:38:13;0.45;;;0.45;;
17886;SDS011;9069;52.044;7.472;2023-07-20T13:40:40;2.22;;;0.50;;
17886;SDS011;9069;52.044;7.472;2023-07-20T13:43:08;0.40;;;0.40;;
17886;SDS011;9069;52.044;7.472;2023-07-20T13:45:35;1.17;;;0.50;;
17886;SDS011;9069;52.044;7.472;2023-07-20T13:48:02;1.85;;;0.55;;
17886;SDS011;9069;52.044;7.472;2023-07-20T13:50:32;0.85;;;0.47;;
17886;SDS011;9069;52.044;7.472;2023-07-20T13:53:01;0.73;;;0.40;;
17886;SDS011;9069;52.044;7.472;2023-07-20T13:55:48;0.88;;;0.40;;
17886;SDS011;9069;52.044;7.472;2023-07-20T13:58:18;0.40;;;0.40;;
17886;SDS011;9069;52.044;7.472;2023-07-20T14:00:45;0.40;;;0.40;;
17886;SDS011;9069;52.044;7.472;2023-07-20T14:03:12;0.40;;;0.40;;
17886;SDS011;9069;52.044;7.472;2023-07-20T14:05:41;0.57;;;0.50;;
17886;SDS011;9069;52.044;7.472;2023-07-20T14:08:12;3.13;;;0.60;;
17886;SDS011;9069;52.044;7.472;2023-07-20T14:10:39;1.55;;;0.50;;
17886;SDS011;9069;52.044;7.472;2023-07-20T14:13:09;0.77;;;0.60;;
17886;SDS011;9069;52.044;7.472;2023-07-20T14:15:36;0.60;;;0.40;;
17886;SDS011;9069;52.044;7.472;2023-07-20T14:18:02;0.57;;;0.30;;
17886;SDS011;9069;52.044;7.472;2023-07-20T14:20:29;0.65;;;0.43;;
17886;SDS011;9069;52.044;7.472;2023-07-20T14:22:56;0.50;;;0.50;;
17886;SDS011;9069;52.044;7.472;2023-07-20T14:25:24;0.95;;;0.57;;
17886;SDS011;9069;52.044;7.472;2023-07-20T14:27:54;1.52;;;0.60;;
17886;SDS011;9069;52.044;7.472;2023-07-20T14:30:21;1.02;;;0.45;;
17886;SDS011;9069;52.044;7.472;2023-07-20T14:32:47;0.50;;;0.50;;
17886;SDS011;9069;52.044;7.472;2023-07-20T14:35:16;0.55;;;0.50;;
17886;SDS011;9069;52.044;7.472;2023-07-20T14:37:44;0.52;;;0.50;;
17886;SDS011;9069;52.044;7.472;2023-07-20T14:40:13;0.57;;;0.47;;
17886;SDS011;9069;52.044;7.472;2023-07-20T14:42:40;0.52;;;0.40;;
17886;SDS011;9069;52.044;7.472;2023-07-20T14:45:07;2.83;;;0.45;;
17886;SDS011;9069;52.044;7.472;2023-07-20T14:47:34;2.67;;;0.40;;
17886;SDS011;9069;52.044;7.472;2023-07-20T14:50:02;0.50;;;0.47;;
17886;SDS011;9069;52.044;7.472;2023-07-20T14:52:29;2.10;;;0.50;;
17886;SDS011;9069;52.044;7.472;2023-07-20T14:54:56;1.25;;;0.57;;
17886;SDS011;9069;52.044;7.472;2023-07-20T14:57:23;0.93;;;0.40;;
17886;SDS011;9069;52.044;7.472;2023-07-20T14:59:50;1.48;;;0.82;;
17886;SDS011;9069;52.044;7.472;2023-07-20T15:02:17;0.40;;;0.40;;
17886;SDS011;9069;52.044;7.472;2023-07-20T15:04:48;0.65;;;0.45;;
17886;SDS011;9069;52.044;7.472;2023-07-20T15:07:15;0.57;;;0.50;;
17886;SDS011;9069;52.044;7.472;2023-07-20T15:09:43;0.45;;;0.40;;
17886;SDS011;9069;52.044;7.472;2023-07-20T15:12:12;0.50;;;0.40;;
17886;SDS011;9069;52.044;7.472;2023-07-20T15:14:42;1.60;;;0.43;;
17886;SDS011;9069;52.044;7.472;2023-07-20T15:17:09;1.38;;;0.50;;
17886;SDS011;9069;52.044;7.472;2023-07-20T15:19:37;0.70;;;0.50;;
17886;SDS011;9069;52.044;7.472;2023-07-20T15:22:03;0.60;;;0.60;;